createdAt,value
2023-01-11T00:08:59.531Z,7.02
2023-01-11T00:19:05.002Z,7.06
2023-01-11T00:29:08.672Z,7.16
2023-01-11T00:39:14.119Z,7.23
2023-01-11T00:49:17.784Z,7.45
2023-01-11T00:59:22.811Z,7.53
2023-01-11T01:09:26.601Z,7.68
2023-01-11T01:19:32.415Z,7.59
2023-01-11T01:29:35.969Z,7.82
2023-01-11T01:39:41.748Z,7.79
2023-01-11T01:49:46.873Z,7.99
2023-01-11T01:59:54.356Z,7.93
2023-01-11T02:10:04.874Z,7.65
2023-01-11T02:20:46.160Z,7.77
2023-01-11T02:31:01.897Z,7.93
2023-01-11T02:41:15.203Z,7.83
2023-01-11T02:51:28.296Z,7.83
2023-01-11T03:01:31.918Z,7.79
2023-01-11T03:12:17.782Z,7.71
2023-01-11T03:22:29.944Z,7.66
2023-01-11T03:32:44.591Z,7.83
2023-01-11T03:43:09.963Z,7.82
2023-01-11T03:53:18.381Z,7.81
2023-01-11T04:03:25.489Z,7.99
2023-01-11T04:13:32.366Z,8.07
2023-01-11T04:23:36.189Z,8.02
2023-01-11T04:33:41.162Z,8.05
2023-01-11T04:43:45.074Z,8.21
2023-01-11T04:53:51.554Z,8.25
2023-01-11T05:03:56.132Z,8.16
2023-01-11T05:14:01.056Z,8.48
2023-01-11T05:24:08.230Z,8.48
2023-01-11T05:34:14.813Z,8.61
2023-01-11T05:44:36.936Z,8.75
2023-01-11T05:54:41.835Z,8.91
2023-01-11T06:04:45.469Z,8.93
2023-01-11T06:14:51.353Z,8.95
2023-01-11T06:24:54.965Z,8.95
2023-01-11T06:34:59.905Z,8.97
2023-01-11T06:45:03.568Z,8.99
2023-01-11T06:55:10.141Z,8.90
2023-01-11T07:05:14.585Z,8.93
2023-01-11T07:15:19.943Z,9.16
2023-01-11T07:25:23.556Z,9.25
2023-01-11T07:35:29.183Z,9.29
2023-01-11T07:45:44.553Z,9.37
2023-01-11T07:55:50.274Z,9.25
2023-01-11T08:05:54.498Z,9.26
2023-01-11T08:16:00.652Z,9.45
2023-01-11T08:26:04.359Z,9.46
2023-01-11T08:36:12.699Z,9.54
2023-01-11T08:46:16.735Z,9.54
2023-01-11T08:56:21.939Z,9.74
2023-01-11T09:06:25.629Z,9.56
2023-01-11T09:16:31.707Z,9.62
2023-01-11T09:26:35.670Z,9.73
2023-01-11T09:36:41.145Z,9.71
2023-01-11T09:46:51.159Z,9.68
2023-01-11T09:57:11.553Z,9.80
2023-01-11T10:07:37.325Z,9.81
2023-01-11T10:18:37.060Z,10.00
2023-01-11T10:28:24.993Z,9.81
2023-01-11T10:38:57.698Z,9.98
2023-01-11T10:49:30.544Z,9.96
2023-01-11T10:59:56.403Z,10.12
2023-01-11T11:10:12.494Z,10.15
2023-01-11T11:20:19.913Z,10.28
2023-01-11T11:30:30.371Z,10.54
2023-01-11T11:40:38.374Z,10.61
2023-01-11T11:50:45.472Z,11.10
2023-01-11T12:00:53.463Z,11.34
2023-01-11T12:11:00.192Z,11.55
2023-01-11T12:21:21.915Z,11.30
2023-01-11T12:31:39.319Z,11.02
2023-01-11T12:42:02.628Z,11.06
2023-01-11T12:52:35.906Z,11.06
2023-01-11T13:03:10.339Z,10.96
2023-01-11T13:13:20.547Z,11.07
2023-01-11T13:23:40.017Z,11.07
2023-01-11T13:33:52.684Z,11.21
2023-01-11T13:44:04.803Z,11.24
2023-01-11T13:54:16.515Z,11.23
2023-01-11T14:04:29.024Z,11.16
2023-01-11T14:15:00.376Z,11.09
2023-01-11T14:25:10.612Z,11.07
2023-01-11T14:35:56.076Z,10.78
2023-01-11T14:46:47.625Z,10.77
2023-01-11T14:56:55.229Z,10.57
2023-01-11T15:07:00.919Z,10.44
2023-01-11T15:17:22.133Z,10.44
2023-01-11T15:27:33.339Z,10.66
2023-01-11T15:37:49.671Z,10.42
2023-01-11T15:48:21.082Z,10.24
2023-01-11T15:59:13.357Z,10.03
2023-01-11T16:09:58.910Z,9.75
2023-01-11T16:20:22.897Z,9.62
2023-01-11T16:30:29.055Z,9.61
2023-01-11T16:40:36.901Z,9.42
2023-01-11T16:50:45.943Z,9.27
2023-01-11T17:01:00.269Z,9.41
2023-01-11T17:11:20.311Z,9.13
2023-01-11T17:21:27.204Z,8.93
2023-01-11T17:31:36.136Z,8.73
2023-01-11T17:41:57.699Z,8.67
2023-01-11T17:52:20.376Z,8.74
2023-01-11T18:02:24.241Z,8.49
2023-01-11T18:12:32.998Z,8.53
2023-01-11T18:22:40.514Z,8.42
2023-01-11T18:32:45.715Z,8.45
2023-01-11T18:42:52.162Z,8.60
2023-01-11T18:52:57.737Z,8.62
2023-01-11T19:03:01.515Z,8.60
2023-01-11T19:13:06.683Z,8.31
2023-01-11T19:23:10.922Z,8.24
2023-01-11T19:33:15.963Z,8.36
2023-01-11T19:43:19.690Z,8.30
2023-01-11T19:53:24.705Z,8.11
2023-01-11T20:03:29.975Z,8.13
2023-01-11T20:13:35.507Z,8.09
2023-01-11T20:23:41.587Z,7.98
2023-01-11T20:33:46.906Z,8.21
2023-01-11T20:43:50.552Z,8.06
2023-01-11T20:53:56.772Z,8.06
2023-01-11T21:04:03.262Z,7.91
2023-01-11T21:14:12.002Z,7.92
2023-01-11T21:24:21.658Z,8.16
2023-01-11T21:34:26.771Z,8.08
2023-01-11T21:44:33.614Z,8.08
2023-01-11T21:54:38.787Z,8.03
2023-01-11T22:04:42.418Z,7.93
2023-01-11T22:14:47.441Z,7.83
2023-01-11T22:24:51.166Z,7.97
2023-01-11T22:34:56.583Z,7.91
2023-01-11T22:45:00.189Z,7.86
2023-01-11T22:55:06.549Z,8.20
2023-01-11T23:05:10.459Z,8.09
2023-01-11T23:15:15.612Z,8.26
2023-01-11T23:25:19.325Z,8.32
2023-01-11T23:35:24.305Z,8.25
2023-01-11T23:45:27.895Z,8.47
2023-01-11T23:55:32.961Z,8.69
